Date,TemperatureHighF,TemperatureAvgF,TemperatureLowF,DewpointHighF,DewpointAvgF,DewpointLowF,HumidityHigh,HumidityAvg,HumidityLow,PressureMaxIn,PressureMinIn,WindSpeedMaxMPH,WindSpeedAvgMPH,GustSpeedMaxMPH,PrecipitationSumIn
2013-7-1,88,79,70,70,66,63,83,65,49,29.92,29.81,8,1,11,0.00
2013-7-2,93,79,67,69,66,64,92,67,41,29.99,29.91,9,1,12,0.00
2013-7-3,92,81,69,69,66,62,87,62,38,30.01,29.91,7,2,11,0.00
2013-7-4,92,80,69,72,68,64,94,68,43,29.97,29.89,10,1,10,0.00
2013-7-5,94,81,70,75,71,68,93,74,42,29.96,29.89,9,2,17,0.00
2013-7-6,92,79,71,76,73,69,95,82,54,29.95,29.88,8,3,11,0.00
2013-7-7,90,80,75,79,75,73,95,87,64,30.03,29.92,9,2,15,0.39
2013-7-8,93,81,74,79,76,73,96,84,57,30.11,30.01,11,2,12,0.00
2013-7-9,97,84,75,79,76,73,96,79,50,30.15,30.05,9,2,15,0.00
2013-7-10,95,84,73,78,75,72,95,76,53,30.08,29.95,8,1,13,0.00
2013-7-11,94,82,76,79,75,71,93,81,55,29.99,29.89,6,1,10,0.01
2013-7-12,97,83,75,81,76,73,95,81,54,29.95,29.84,7,1,10,0.06
2013-7-13,96,83,71,76,68,58,94,65,32,29.95,29.85,7,1,10,0.00
2013-7-14,93,81,71,75,70,67,91,72,45,29.95,29.88,5,1,5,0.00
2013-7-15,89,80,75,77,74,72,93,81,60,30.07,29.92,7,2,14,0.05
2013-7-16,88,79,73,76,74,71,94,86,68,30.12,30.03,13,4,18,0.11
2013-7-17,92,79,72,77,74,70,95,85,57,30.18,30.10,9,2,22,0.17
2013-7-18,95,81,71,76,72,70,96,78,50,30.14,29.99,8,1,16,0.00
2013-7-19,90,77,72,76,72,70,94,86,60,30.05,29.93,6,1,13,0.02
2013-7-20,93,79,70,76,72,69,96,81,50,29.98,29.87,13,1,22,0.00
2013-7-21,88,79,72,77,74,71,96,85,68,30.01,29.93,8,2,18,0.67
2013-7-22,94,84,75,81,78,74,95,83,64,30.03,29.96,8,1,14,0.00
2013-7-23,94,84,77,79,77,76,94,80,59,30.04,29.91,6,1,12,0.00
2013-7-24,95,84,75,79,77,73,94,80,56,29.99,29.86,7,1,15,0.00
2013-7-25,95,84,79,79,77,75,92,80,55,30.03,29.93,7,2,11,0.00
2013-7-26,96,84,74,79,76,73,96,79,52,30.05,29.92,9,2,13,0.00
2013-7-27,92,83,78,78,76,73,92,80,61,29.96,29.85,11,2,19,0.00
2013-7-28,91,80,74,79,76,72,94,86,67,29.99,29.89,7,2,9,0.02
2013-7-29,95,83,73,78,75,71,96,80,55,30.09,29.98,6,1,11,0.01
2013-7-30,95,82,70,79,73,69,96,78,47,30.12,30.04,7,1,13,0.00
2013-7-31,97,83,72,79,75,71,96,79,48,30.09,29.95,7,1,12,0.00